createdAt,value
2023-11-08T00:03:29.408Z,97468.13
2023-11-08T00:07:30.837Z,97472.81
2023-11-08T00:11:32.213Z,97475.00
2023-11-08T00:15:33.652Z,97480.19
2023-11-08T00:19:36.385Z,97478.81
2023-11-08T00:23:37.736Z,97476.38
2023-11-08T00:27:39.158Z,97481.84
2023-11-08T00:31:40.519Z,97479.09
2023-11-08T00:35:43.214Z,97484.03
2023-11-08T00:39:44.666Z,97485.16
2023-11-08T00:43:46.216Z,97487.88
2023-11-08T00:47:47.804Z,97493.38
2023-11-08T00:51:50.619Z,97492.53
2023-11-08T00:55:51.998Z,97502.44
2023-11-08T00:59:53.359Z,97500.50
2023-11-08T01:03:54.833Z,97501.06
2023-11-08T01:07:57.669Z,97500.81
2023-11-08T01:11:59.035Z,97497.22
2023-11-08T01:16:00.388Z,97503.00
2023-11-08T01:20:01.744Z,97502.44
2023-11-08T01:24:04.852Z,97492.81
2023-11-08T01:28:06.201Z,97499.69
2023-11-08T01:32:07.853Z,97494.47
2023-11-08T01:36:09.210Z,97495.84
2023-11-08T01:40:12.120Z,97494.75
2023-11-08T01:44:13.471Z,97498.03
2023-11-08T01:48:15.031Z,97497.22
2023-11-08T01:52:16.448Z,97490.09
2023-11-08T01:56:19.903Z,97489.53
2023-11-08T02:00:22.384Z,97484.31
2023-11-08T02:04:24.122Z,97482.94
2023-11-08T02:08:25.522Z,97498.31
2023-11-08T02:12:28.224Z,97488.97
2023-11-08T02:16:30.966Z,97492.84
2023-11-08T02:20:32.313Z,97487.88
2023-11-08T02:24:35.035Z,97487.34
2023-11-08T02:28:37.131Z,97491.47
2023-11-08T02:32:38.497Z,97499.69
2023-11-08T02:36:39.881Z,97484.59
2023-11-08T02:40:42.607Z,97496.13
2023-11-08T02:44:43.962Z,97495.84
2023-11-08T02:48:45.362Z,97497.50
2023-11-08T02:52:46.778Z,97500.75
2023-11-08T02:56:49.477Z,97501.59
2023-11-08T03:00:51.150Z,97500.78
2023-11-08T03:04:52.708Z,97509.56
2023-11-08T03:08:54.155Z,97521.34
2023-11-08T03:12:56.883Z,97539.47
2023-11-08T03:16:58.319Z,97521.34
2023-11-08T03:20:59.723Z,97516.44
2023-11-08T03:25:01.076Z,97510.38
2023-11-08T03:29:03.798Z,97509.03
2023-11-08T03:33:05.272Z,97518.34
2023-11-08T03:37:06.677Z,97525.22
2023-11-08T03:41:08.056Z,97520.53
2023-11-08T03:45:11.593Z,97526.03
2023-11-08T03:49:13.058Z,97526.03
2023-11-08T03:53:14.473Z,97530.97
2023-11-08T03:57:15.940Z,97534.25
2023-11-08T04:01:18.732Z,97539.47
2023-11-08T04:05:20.249Z,97542.22
2023-11-08T04:09:21.939Z,97541.66
2023-11-08T04:13:23.313Z,97542.75
2023-11-08T04:17:26.083Z,97543.03
2023-11-08T04:21:27.481Z,97537.00
2023-11-08T04:25:28.874Z,97529.88
2023-11-08T04:29:30.265Z,97543.56
2023-11-08T04:33:33.060Z,97540.50
2023-11-08T04:37:34.629Z,97531.47
2023-11-08T04:41:36.131Z,97536.38
2023-11-08T04:45:37.555Z,97545.16
2023-11-08T04:49:40.319Z,97544.84
2023-11-08T04:53:41.694Z,97548.00
2023-11-08T04:57:43.162Z,97546.22
2023-11-08T05:01:44.639Z,97550.06
2023-11-08T05:05:47.606Z,97545.75
2023-11-08T05:09:49.083Z,97550.84
2023-11-08T05:13:50.943Z,97543.03
2023-11-08T05:17:52.366Z,97548.53
2023-11-08T05:21:55.205Z,97553.28
2023-11-08T05:25:56.640Z,97548.88
2023-11-08T05:29:58.005Z,97557.84
2023-11-08T05:33:59.449Z,97553.72
2023-11-08T05:38:02.192Z,97561.22
2023-11-08T05:42:03.687Z,97565.50
2023-11-08T05:46:05.044Z,97559.22
2023-11-08T05:50:07.166Z,97549.94
2023-11-08T05:54:09.899Z,97571.50
2023-11-08T05:58:14.600Z,97570.91
2023-11-08T06:02:16.923Z,97571.19
2023-11-08T06:06:18.401Z,97574.78
2023-11-08T06:10:21.133Z,97578.56
2023-11-08T06:14:22.566Z,97578.97
2023-11-08T06:18:24.057Z,97591.63
2023-11-08T06:22:25.500Z,97585.91
2023-11-08T06:26:28.262Z,97590.94
2023-11-08T06:30:29.637Z,97594.41
2023-11-08T06:34:31.106Z,97601.19
2023-11-08T06:38:32.489Z,97605.59
2023-11-08T06:42:35.338Z,97611.16
2023-11-08T06:46:38.841Z,97607.06
2023-11-08T06:50:41.876Z,97604.03
2023-11-08T06:54:43.431Z,97608.75
2023-11-08T06:58:46.259Z,97620.00
2023-11-08T07:02:47.633Z,97614.28
2023-11-08T07:06:49.138Z,97624.44
2023-11-08T07:10:50.708Z,97629.97
2023-11-08T07:14:53.419Z,97633.75
2023-11-08T07:18:54.837Z,97636.00
2023-11-08T07:22:56.259Z,97645.31
2023-11-08T07:26:57.655Z,97647.00
2023-11-08T07:31:00.462Z,97649.25
2023-11-08T07:35:01.843Z,97662.66
2023-11-08T07:39:03.341Z,97662.13
2023-11-08T07:43:04.728Z,97651.97
2023-11-08T07:47:07.462Z,97642.91
2023-11-08T07:51:08.830Z,97648.22
2023-11-08T07:55:10.591Z,97645.44
2023-11-08T07:59:12.250Z,97654.81
2023-11-08T08:03:15.130Z,97648.22
2023-11-08T08:07:16.499Z,97657.28
2023-11-08T08:11:17.896Z,97646.53
2023-11-08T08:15:19.400Z,97644.09
2023-11-08T08:19:22.166Z,97649.84
2023-11-08T08:23:23.769Z,97658.09
2023-11-08T08:27:25.171Z,97650.41
2023-11-08T08:31:26.586Z,97656.44
2023-11-08T08:35:29.525Z,97660.81
2023-11-08T08:39:30.971Z,97653.69
2023-11-08T08:43:32.402Z,97658.75
2023-11-08T08:47:39.609Z,97655.19
2023-11-08T08:51:47.198Z,97648.22
2023-11-08T08:55:48.574Z,97659.38
2023-11-08T08:59:50.261Z,97657.66
2023-11-08T09:03:51.681Z,97667.09
2023-11-08T09:07:54.437Z,97672.50
2023-11-08T09:11:55.798Z,97670.72
2023-11-08T09:15:57.181Z,97671.28
2023-11-08T09:19:58.712Z,97671.59
2023-11-08T09:24:01.587Z,97673.63
2023-11-08T09:28:03.043Z,97669.28
2023-11-08T09:32:05.004Z,97666.16
2023-11-08T09:36:06.888Z,97660.75
2023-11-08T09:40:10.345Z,97656.81
2023-11-08T09:44:13.376Z,97654.06
2023-11-08T09:48:14.854Z,97646.94
2023-11-08T09:52:16.294Z,97648.81
2023-11-08T09:56:19.076Z,97654.81
2023-11-08T10:00:20.545Z,97646.72
2023-11-08T10:04:28.895Z,97638.44
2023-11-08T10:08:33.827Z,97631.66
2023-11-08T10:12:36.573Z,97627.03
2023-11-08T10:16:44.599Z,97616.00
2023-11-08T10:21:04.726Z,97613.00
2023-11-08T10:25:06.753Z,97618.31
2023-11-08T10:29:09.713Z,97605.22
2023-11-08T10:33:11.684Z,97601.66
2023-11-08T10:37:22.630Z,97599.03
2023-11-08T10:41:24.032Z,97598.97
2023-11-08T10:45:27.175Z,97580.63
2023-11-08T10:49:28.668Z,97574.19
2023-11-08T10:53:30.090Z,97580.16
2023-11-08T10:57:33.174Z,97580.25
2023-11-08T11:01:36.549Z,97570.69
2023-11-08T11:05:40.087Z,97567.56
2023-11-08T11:09:41.590Z,97565.31
2023-11-08T11:13:46.239Z,97560.44
2023-11-08T11:17:52.207Z,97565.81
2023-11-08T11:21:55.451Z,97551.66
2023-11-08T11:25:56.867Z,97567.09
2023-11-08T11:30:13.137Z,97565.13
2023-11-08T11:34:33.219Z,97564.25
2023-11-08T11:38:35.926Z,97581.75
2023-11-08T11:42:37.364Z,97575.91
2023-11-08T11:46:38.756Z,97570.56
2023-11-08T11:50:40.120Z,97574.72
2023-11-08T11:54:46.475Z,97555.03
2023-11-08T11:58:49.636Z,97561.72
2023-11-08T12:02:51.258Z,97566.94
2023-11-08T12:06:52.773Z,97568.34
2023-11-08T12:11:09.062Z,97555.06
2023-11-08T12:15:15.209Z,97554.63
2023-11-08T12:19:17.567Z,97549.25
2023-11-08T12:23:18.991Z,97541.88
2023-11-08T12:27:20.354Z,97538.53
2023-11-08T12:31:23.069Z,97539.75
2023-11-08T12:35:24.532Z,97535.25
2023-11-08T12:39:27.388Z,97532.19
2023-11-08T12:43:58.132Z,97539.47
2023-11-08T12:48:01.608Z,97538.13
2023-11-08T12:52:03.133Z,97533.63
2023-11-08T12:56:05.789Z,97525.63
2023-11-08T13:00:07.810Z,97525.41
2023-11-08T13:04:10.821Z,97513.59
2023-11-08T13:08:12.342Z,97518.31
2023-11-08T13:12:13.707Z,97514.91
2023-11-08T13:16:15.302Z,97511.06
2023-11-08T13:20:18.019Z,97519.25
2023-11-08T13:24:19.380Z,97515.69
2023-11-08T13:28:20.779Z,97522.47
2023-11-08T13:32:22.152Z,97519.66
2023-11-08T13:36:24.956Z,97519.28
2023-11-08T13:40:26.331Z,97517.50
2023-11-08T13:44:27.683Z,97507.84
2023-11-08T13:48:29.117Z,97507.72
2023-11-08T13:52:31.840Z,97509.78
2023-11-08T13:56:34.125Z,97508.50
2023-11-08T14:00:37.373Z,97496.78
2023-11-08T14:04:38.799Z,97497.81
2023-11-08T14:08:41.718Z,97501.81
2023-11-08T14:12:45.356Z,97512.53
2023-11-08T14:16:46.909Z,97504.69
2023-11-08T14:20:48.266Z,97505.44
2023-11-08T14:24:51.076Z,97501.94
2023-11-08T14:28:52.460Z,97495.59
2023-11-08T14:32:53.850Z,97490.56
2023-11-08T14:36:57.084Z,97498.75
2023-11-08T14:41:00.383Z,97493.63
2023-11-08T14:45:01.772Z,97489.00
2023-11-08T14:49:03.209Z,97482.22
2023-11-08T14:53:04.630Z,97497.44
2023-11-08T14:57:07.347Z,97496.22
2023-11-08T15:01:08.735Z,97491.66
2023-11-08T15:05:10.161Z,97482.47
2023-11-08T15:09:52.392Z,97487.03
2023-11-08T15:13:34.324Z,97485.13
2023-11-08T15:17:35.703Z,97484.22
2023-11-08T15:21:37.566Z,97472.13
2023-11-08T15:25:39.052Z,97466.22
2023-11-08T15:29:41.798Z,97465.97
2023-11-08T15:33:43.195Z,97468.66
2023-11-08T15:37:44.658Z,97473.66
2023-11-08T15:41:46.017Z,97470.69
2023-11-08T15:45:48.802Z,97464.69
2023-11-08T15:49:50.345Z,97464.59
2023-11-08T15:53:51.749Z,97462.25
2023-11-08T15:57:53.115Z,97461.25
2023-11-08T16:01:55.844Z,97455.63
2023-11-08T16:05:57.221Z,97456.50
2023-11-08T16:09:58.614Z,97450.22
2023-11-08T16:13:59.997Z,97443.97
2023-11-08T16:18:03.015Z,97453.88
2023-11-08T16:22:04.525Z,97449.47
2023-11-08T16:26:05.920Z,97452.25
2023-11-08T16:30:07.822Z,97440.16
2023-11-08T16:34:10.749Z,97447.28
2023-11-08T16:38:12.330Z,97443.72
2023-11-08T16:42:13.711Z,97449.47
2023-11-08T16:46:15.243Z,97450.59
2023-11-08T16:50:18.743Z,97450.84
2023-11-08T16:54:20.085Z,97458.78
2023-11-08T16:58:21.459Z,97463.16
2023-11-08T17:02:22.899Z,97456.59
2023-11-08T17:06:25.619Z,97458.25
2023-11-08T17:10:27.007Z,97465.91
2023-11-08T17:14:28.366Z,97462.91
2023-11-08T17:18:29.797Z,97470.88
2023-11-08T17:22:32.521Z,97468.94
2023-11-08T17:26:33.879Z,97458.81
2023-11-08T17:30:35.262Z,97455.22
2023-11-08T17:34:36.725Z,97446.72
2023-11-08T17:38:39.462Z,97442.59
2023-11-08T17:42:40.843Z,97438.22
2023-11-08T17:46:42.233Z,97432.19
2023-11-08T17:50:43.597Z,97440.19
2023-11-08T17:54:46.350Z,97425.34
2023-11-08T17:58:47.827Z,97429.72
2023-11-08T18:02:49.229Z,97419.88
2023-11-08T18:06:50.691Z,97416.53
2023-11-08T18:10:53.519Z,97426.34
2023-11-08T18:14:54.905Z,97430.69
2023-11-08T18:18:56.311Z,97438.88
2023-11-08T18:22:57.710Z,97440.69
2023-11-08T18:27:00.430Z,97429.97
2023-11-08T18:31:01.820Z,97434.13
2023-11-08T18:35:03.442Z,97433.31
2023-11-08T18:39:04.879Z,97428.31
2023-11-08T18:43:07.623Z,97431.53
2023-11-08T18:47:09.053Z,97429.63
2023-11-08T18:51:10.427Z,97427.91
2023-11-08T18:55:11.921Z,97434.69
2023-11-08T18:59:14.699Z,97425.63
2023-11-08T19:03:16.088Z,97428.66
2023-11-08T19:07:17.508Z,97419.34
2023-11-08T19:11:19.414Z,97402.44
2023-11-08T19:15:22.108Z,97411.72
2023-11-08T19:19:23.574Z,97395.72
2023-11-08T19:23:28.018Z,97393.50
2023-11-08T19:27:29.816Z,97387.75
2023-11-08T19:31:32.519Z,97394.22
2023-11-08T19:35:33.966Z,97400.94
2023-11-08T19:39:35.329Z,97393.88
2023-11-08T19:43:36.687Z,97379.38
2023-11-08T19:47:39.653Z,97386.19
2023-11-08T19:51:41.129Z,97391.28
2023-11-08T19:55:42.532Z,97385.91
2023-11-08T19:59:43.901Z,97385.59
2023-11-08T20:03:46.697Z,97386.38
2023-11-08T20:07:48.139Z,97378.13
2023-11-08T20:11:49.486Z,97366.28
2023-11-08T20:15:50.883Z,97360.75
2023-11-08T20:19:53.739Z,97363.78
2023-11-08T20:23:55.089Z,97369.13
2023-11-08T20:27:56.495Z,97372.13
2023-11-08T20:31:57.951Z,97367.78
2023-11-08T20:36:01.176Z,97360.63
2023-11-08T20:40:02.706Z,97359.28
2023-11-08T20:44:04.480Z,97355.28
2023-11-08T20:48:05.952Z,97351.75
2023-11-08T20:52:08.746Z,97353.09
2023-11-08T20:56:10.623Z,97340.44
2023-11-08T21:00:12.722Z,97337.69
2023-11-08T21:04:14.290Z,97344.56
2023-11-08T21:08:17.106Z,97342.03
2023-11-08T21:12:18.487Z,97343.09
2023-11-08T21:16:19.878Z,97348.25
2023-11-08T21:20:21.252Z,97345.09
2023-11-08T21:24:23.977Z,97332.63
2023-11-08T21:28:26.828Z,97334.28
2023-11-08T21:32:28.310Z,97335.75
2023-11-08T21:36:29.724Z,97328.63
2023-11-08T21:40:32.473Z,97314.03
2023-11-08T21:44:33.839Z,97311.91
2023-11-08T21:48:35.198Z,97304.06
2023-11-08T21:52:36.670Z,97296.09
2023-11-08T21:56:39.423Z,97298.19
2023-11-08T22:00:40.783Z,97280.16
2023-11-08T22:04:42.342Z,97279.09
2023-11-08T22:08:43.776Z,97272.31
2023-11-08T22:12:46.564Z,97261.09
2023-11-08T22:16:47.928Z,97266.50
2023-11-08T22:20:49.284Z,97266.22
2023-11-08T22:24:50.736Z,97255.06
2023-11-08T22:28:53.482Z,97252.91
2023-11-08T22:32:54.922Z,97251.75
2023-11-08T22:36:56.350Z,97245.84
2023-11-08T22:40:57.726Z,97250.41
2023-11-08T22:45:00.448Z,97236.13
2023-11-08T22:49:01.911Z,97238.72
2023-11-08T22:53:03.380Z,97225.72
2023-11-08T22:57:04.943Z,97236.25
2023-11-08T23:01:07.803Z,97227.53
2023-11-08T23:05:09.407Z,97218.16
2023-11-08T23:09:10.799Z,97204.13
2023-11-08T23:13:12.207Z,97202.13
2023-11-08T23:17:14.914Z,97197.09
2023-11-08T23:21:16.282Z,97190.34
2023-11-08T23:25:17.749Z,97204.88
2023-11-08T23:29:19.119Z,97207.25
2023-11-08T23:33:21.924Z,97195.22
2023-11-08T23:37:23.334Z,97190.53
2023-11-08T23:41:24.737Z,97190.75
2023-11-08T23:45:26.148Z,97194.78
2023-11-08T23:49:28.872Z,97176.81
2023-11-08T23:53:30.277Z,97182.94
2023-11-08T23:57:31.686Z,97166.28
